sensor_id;sensor_type;location;lat;lon;timestamp;pressure;altitude;pressure_sealevel;temperature;humidity
37132;BME280;23035;50.032;21.978;2023-05-10T00:00:19;66077.31;;;8.60;73.04
37132;BME280;23035;50.032;21.978;2023-05-10T00:05:43;66065.06;;;8.51;74.08
37132;BME280;23035;50.032;21.978;2023-05-10T00:10:48;66127.19;;;9.10;70.39
37132;BME280;23035;50.032;21.978;2023-05-10T00:15:53;66126.13;;;9.09;69.97
37132;BME280;23035;50.032;21.978;2023-05-10T00:20:57;66078.47;;;8.64;72.96
37132;BME280;23035;50.032;21.978;2023-05-10T00:26:01;66089.81;;;8.77;74.04
37132;BME280;23035;50.032;21.978;2023-05-10T00:31:07;66122.75;;;9.01;75.61
37132;BME280;23035;50.032;21.978;2023-05-10T00:36:11;65971.38;;;7.62;86.32
37132;BME280;23035;50.032;21.978;2023-05-10T00:41:16;65841.97;;;6.39;98.39
37132;BME280;23035;50.032;21.978;2023-05-10T00:46:22;65744.78;;;5.49;100.00
37132;BME280;23035;50.032;21.978;2023-05-10T00:51:26;65702.50;;;5.06;100.00
37132;BME280;23035;50.032;21.978;2023-05-10T00:56:30;65675.94;;;4.83;100.00
37132;BME280;23035;50.032;21.978;2023-05-10T01:01:36;65742.13;;;5.46;100.00
37132;BME280;23035;50.032;21.978;2023-05-10T01:06:41;65772.66;;;5.78;100.00
37132;BME280;23035;50.032;21.978;2023-05-10T01:11:46;65758.59;;;5.60;100.00
37132;BME280;23035;50.032;21.978;2023-05-10T01:16:52;65702.41;;;5.04;100.00
37132;BME280;23035;50.032;21.978;2023-05-10T01:21:59;65739.91;;;5.42;100.00
37132;BME280;23035;50.032;21.978;2023-05-10T01:27:23;65739.47;;;5.44;100.00
37132;BME280;23035;50.032;21.978;2023-05-10T01:32:35;65772.47;;;5.73;100.00
37132;BME280;23035;50.032;21.978;2023-05-10T01:37:42;65759.13;;;5.60;100.00
37132;BME280;23035;50.032;21.978;2023-05-10T01:42:53;65800.91;;;6.02;100.00
37132;BME280;23035;50.032;21.978;2023-05-10T01:48:05;65752.19;;;5.54;100.00
37132;BME280;23035;50.032;21.978;2023-05-10T01:53:11;65718.63;;;5.24;100.00
37132;BME280;23035;50.032;21.978;2023-05-10T01:58:20;65726.44;;;5.27;100.00
37132;BME280;23035;50.032;21.978;2023-05-10T02:03:28;65753.25;;;5.55;100.00
37132;BME280;23035;50.032;21.978;2023-05-10T02:08:33;65699.84;;;5.04;100.00
37132;BME280;23035;50.032;21.978;2023-05-10T02:13:41;65797.06;;;5.96;100.00
37132;BME280;23035;50.032;21.978;2023-05-10T02:18:48;65799.75;;;5.99;100.00
37132;BME280;23035;50.032;21.978;2023-05-10T02:23:54;65781.03;;;5.81;100.00
37132;BME280;23035;50.032;21.978;2023-05-10T02:28:59;65740.00;;;5.44;100.00
37132;BME280;23035;50.032;21.978;2023-05-10T02:34:08;65749.06;;;5.53;100.00
37132;BME280;23035;50.032;21.978;2023-05-10T02:39:14;65749.94;;;5.49;100.00
37132;BME280;23035;50.032;21.978;2023-05-10T02:44:19;65715.22;;;5.16;100.00
37132;BME280;23035;50.032;21.978;2023-05-10T02:49:26;65693.44;;;4.98;100.00
37132;BME280;23035;50.032;21.978;2023-05-10T02:54:31;65670.56;;;4.78;100.00
37132;BME280;23035;50.032;21.978;2023-05-10T02:59:36;65694.94;;;4.97;100.00
37132;BME280;23035;50.032;21.978;2023-05-10T03:04:42;65752.81;;;5.57;100.00
37132;BME280;23035;50.032;21.978;2023-05-10T03:09:47;65738.72;;;5.38;100.00
37132;BME280;23035;50.032;21.978;2023-05-10T03:15:07;65729.84;;;5.35;100.00
37132;BME280;23035;50.032;21.978;2023-05-10T03:20:22;65717.03;;;5.23;100.00
37132;BME280;23035;50.032;21.978;2023-05-10T03:25:29;65707.94;;;5.14;100.00
37132;BME280;23035;50.032;21.978;2023-05-10T03:30:36;65759.66;;;5.61;100.00
37132;BME280;23035;50.032;21.978;2023-05-10T03:35:43;65728.03;;;5.28;100.00
37132;BME280;23035;50.032;21.978;2023-05-10T03:40:49;65686.59;;;4.94;100.00
37132;BME280;23035;50.032;21.978;2023-05-10T03:45:53;65766.06;;;5.67;100.00
37132;BME280;23035;50.032;21.978;2023-05-10T03:50:58;65857.56;;;6.56;100.00
37132;BME280;23035;50.032;21.978;2023-05-10T03:56:03;65870.22;;;6.64;100.00
37132;BME280;23035;50.032;21.978;2023-05-10T04:01:07;65876.19;;;6.72;100.00
37132;BME280;23035;50.032;21.978;2023-05-10T04:06:12;65818.44;;;6.17;100.00
37132;BME280;23035;50.032;21.978;2023-05-10T04:11:16;65859.06;;;6.55;100.00
37132;BME280;23035;50.032;21.978;2023-05-10T04:16:20;65886.25;;;6.79;100.00
37132;BME280;23035;50.032;21.978;2023-05-10T04:21:25;66053.38;;;8.43;99.45
37132;BME280;23035;50.032;21.978;2023-05-10T04:26:29;66022.22;;;8.11;98.31
37132;BME280;23035;50.032;21.978;2023-05-10T04:31:33;65997.63;;;7.87;98.34
37132;BME280;23035;50.032;21.978;2023-05-10T04:36:40;65985.81;;;7.76;100.00
37132;BME280;23035;50.032;21.978;2023-05-10T04:41:44;65999.22;;;7.89;98.76
37132;BME280;23035;50.032;21.978;2023-05-10T04:46:48;66007.34;;;7.99;96.01
37132;BME280;23035;50.032;21.978;2023-05-10T04:51:53;66025.97;;;8.14;98.22
37132;BME280;23035;50.032;21.978;2023-05-10T04:56:57;66095.44;;;8.75;94.43
37132;BME280;23035;50.032;21.978;2023-05-10T05:02:01;66129.25;;;9.10;92.66
37132;BME280;23035;50.032;21.978;2023-05-10T05:07:07;66187.22;;;9.67;87.28
37132;BME280;23035;50.032;21.978;2023-05-10T05:12:11;66257.03;;;10.36;83.31
37132;BME280;23035;50.032;21.978;2023-05-10T05:17:17;66307.88;;;10.82;79.63
37132;BME280;23035;50.032;21.978;2023-05-10T05:22:22;66240.81;;;10.18;83.84
37132;BME280;23035;50.032;21.978;2023-05-10T05:27:29;66303.06;;;10.77;81.66
37132;BME280;23035;50.032;21.978;2023-05-10T05:32:34;66302.50;;;10.77;78.37
37132;BME280;23035;50.032;21.978;2023-05-10T05:37:39;66358.31;;;11.30;75.09
37132;BME280;23035;50.032;21.978;2023-05-10T05:42:43;66294.38;;;10.67;76.47
37132;BME280;23035;50.032;21.978;2023-05-10T05:47:47;66317.53;;;10.91;76.75
37132;BME280;23035;50.032;21.978;2023-05-10T05:52:53;66390.16;;;11.65;74.60
37132;BME280;23035;50.032;21.978;2023-05-10T05:57:56;66474.31;;;12.40;70.80
37132;BME280;23035;50.032;21.978;2023-05-10T06:03:00;66604.81;;;13.61;64.58
37132;BME280;23035;50.032;21.978;2023-05-10T06:08:06;66705.94;;;14.56;62.10
37132;BME280;23035;50.032;21.978;2023-05-10T06:13:10;66575.41;;;13.38;65.11
37132;BME280;23035;50.032;21.978;2023-05-10T06:18:14;66534.47;;;12.97;61.02
37132;BME280;23035;50.032;21.978;2023-05-10T06:23:19;66633.47;;;13.93;57.12
37132;BME280;23035;50.032;21.978;2023-05-10T06:28:24;66748.59;;;15.02;54.64
37132;BME280;23035;50.032;21.978;2023-05-10T06:33:28;66861.44;;;16.01;49.33
37132;BME280;23035;50.032;21.978;2023-05-10T06:38:34;66795.91;;;15.44;49.11
37132;BME280;23035;50.032;21.978;2023-05-10T06:43:37;66723.78;;;14.76;50.82
37132;BME280;23035;50.032;21.978;2023-05-10T06:48:43;66711.91;;;14.64;47.45
37132;BME280;23035;50.032;21.978;2023-05-10T06:53:48;66667.25;;;14.22;48.14
37132;BME280;23035;50.032;21.978;2023-05-10T06:58:52;66698.56;;;14.54;45.80
37132;BME280;23035;50.032;21.978;2023-05-10T07:03:56;66760.44;;;15.13;44.63
37132;BME280;23035;50.032;21.978;2023-05-10T07:09:02;66714.63;;;14.67;41.08
37132;BME280;23035;50.032;21.978;2023-05-10T07:14:06;66623.09;;;13.78;43.08
37132;BME280;23035;50.032;21.978;2023-05-10T07:19:10;66654.91;;;14.11;43.26
37132;BME280;23035;50.032;21.978;2023-05-10T07:24:15;66654.44;;;14.13;42.86
37132;BME280;23035;50.032;21.978;2023-05-10T07:29:20;66665.72;;;14.23;41.92
37132;BME280;23035;50.032;21.978;2023-05-10T07:34:24;66645.81;;;14.04;42.67
37132;BME280;23035;50.032;21.978;2023-05-10T07:39:29;66673.66;;;14.26;43.64
37132;BME280;23035;50.032;21.978;2023-05-10T07:44:33;66713.00;;;14.66;42.03
37132;BME280;23035;50.032;21.978;2023-05-10T07:49:37;66724.22;;;14.74;40.21
37132;BME280;23035;50.032;21.978;2023-05-10T07:54:43;66729.00;;;14.76;42.73
37132;BME280;23035;50.032;21.978;2023-05-10T07:59:47;66793.28;;;15.44;41.72
37132;BME280;23035;50.032;21.978;2023-05-10T08:04:50;66787.81;;;15.36;40.91
37132;BME280;23035;50.032;21.978;2023-05-10T08:09:57;66793.88;;;15.47;39.99
37132;BME280;23035;50.032;21.978;2023-05-10T08:15:02;66705.31;;;14.53;42.81
37132;BME280;23035;50.032;21.978;2023-05-10T08:20:06;66768.97;;;15.18;41.57
37132;BME280;23035;50.032;21.978;2023-05-10T08:25:12;66720.53;;;14.73;41.36
37132;BME280;23035;50.032;21.978;2023-05-10T08:30:18;66728.59;;;14.80;43.96
37132;BME280;23035;50.032;21.978;2023-05-10T08:35:23;66771.13;;;15.20;41.01
37132;BME280;23035;50.032;21.978;2023-05-10T08:40:28;66747.44;;;14.98;41.80
37132;BME280;23035;50.032;21.978;2023-05-10T08:45:33;66779.28;;;15.31;40.99
37132;BME280;23035;50.032;21.978;2023-05-10T08:50:39;66772.19;;;15.21;42.22
37132;BME280;23035;50.032;21.978;2023-05-10T08:55:44;66787.72;;;15.34;41.71
37132;BME280;23035;50.032;21.978;2023-05-10T09:00:49;66794.19;;;15.40;40.38
37132;BME280;23035;50.032;21.978;2023-05-10T09:05:55;66906.84;;;16.49;39.73
37132;BME280;23035;50.032;21.978;2023-05-10T09:11:01;66896.00;;;16.36;38.59
37132;BME280;23035;50.032;21.978;2023-05-10T09:16:06;66956.91;;;16.94;39.05
37132;BME280;23035;50.032;21.978;2023-05-10T09:21:24;66869.75;;;16.16;38.17
37132;BME280;23035;50.032;21.978;2023-05-10T09:26:30;66854.13;;;16.01;36.37
37132;BME280;23035;50.032;21.978;2023-05-10T09:31:46;66855.75;;;16.03;36.95
37132;BME280;23035;50.032;21.978;2023-05-10T09:36:53;66831.50;;;15.80;36.62
37132;BME280;23035;50.032;21.978;2023-05-10T09:41:59;66879.81;;;16.21;36.68
37132;BME280;23035;50.032;21.978;2023-05-10T09:47:06;66870.28;;;16.17;36.91
37132;BME280;23035;50.032;21.978;2023-05-10T09:52:10;66897.75;;;16.43;37.16
37132;BME280;23035;50.032;21.978;2023-05-10T09:57:20;66950.59;;;16.92;35.36
37132;BME280;23035;50.032;21.978;2023-05-10T10:02:28;66981.22;;;17.19;37.14
37132;BME280;23035;50.032;21.978;2023-05-10T10:07:33;66893.91;;;16.37;37.44
37132;BME280;23035;50.032;21.978;2023-05-10T10:12:41;66883.69;;;16.27;36.13
37132;BME280;23035;50.032;21.978;2023-05-10T10:17:45;66917.06;;;16.58;37.63
37132;BME280;23035;50.032;21.978;2023-05-10T10:22:50;66943.03;;;16.85;36.92
37132;BME280;23035;50.032;21.978;2023-05-10T10:28:07;66896.47;;;16.34;37.31
37132;BME280;23035;50.032;21.978;2023-05-10T10:33:39;66925.16;;;16.66;37.94
37132;BME280;23035;50.032;21.978;2023-05-10T10:38:59;66980.06;;;17.15;37.35
37132;BME280;23035;50.032;21.978;2023-05-10T10:44:24;66962.38;;;17.01;36.74
37132;BME280;23035;50.032;21.978;2023-05-10T10:49:31;66974.75;;;17.13;36.64
37132;BME280;23035;50.032;21.978;2023-05-10T10:54:36;66932.25;;;16.75;39.15
37132;BME280;23035;50.032;21.978;2023-05-10T10:59:45;66988.84;;;17.29;37.40
37132;BME280;23035;50.032;21.978;2023-05-10T11:04:49;66983.25;;;17.16;36.29
37132;BME280;23035;50.032;21.978;2023-05-10T11:09:57;66973.69;;;17.12;37.18
37132;BME280;23035;50.032;21.978;2023-05-10T11:15:10;67044.84;;;17.79;34.16
37132;BME280;23035;50.032;21.978;2023-05-10T11:20:14;67008.19;;;17.44;33.76
37132;BME280;23035;50.032;21.978;2023-05-10T11:25:19;67182.53;;;19.11;29.93
37132;BME280;23035;50.032;21.978;2023-05-10T11:30:24;67139.75;;;18.66;29.89
37132;BME280;23035;50.032;21.978;2023-05-10T11:35:29;67372.06;;;20.87;27.64
37132;BME280;23035;50.032;21.978;2023-05-10T11:40:33;67297.59;;;20.22;28.19
37132;BME280;23035;50.032;21.978;2023-05-10T11:45:40;67381.16;;;20.94;27.95
37132;BME280;23035;50.032;21.978;2023-05-10T11:50:45;67249.84;;;19.67;27.28
37132;BME280;23035;50.032;21.978;2023-05-10T11:55:49;67341.75;;;20.56;27.21
37132;BME280;23035;50.032;21.978;2023-05-10T12:00:55;67330.44;;;20.48;27.46
37132;BME280;23035;50.032;21.978;2023-05-10T12:06:02;67395.22;;;21.07;27.12
37132;BME280;23035;50.032;21.978;2023-05-10T12:11:08;67342.28;;;20.57;27.68
37132;BME280;23035;50.032;21.978;2023-05-10T12:16:15;67320.72;;;20.39;28.00
37132;BME280;23035;50.032;21.978;2023-05-10T12:21:20;67366.59;;;20.80;27.77
37132;BME280;23035;50.032;21.978;2023-05-10T12:26:25;67354.75;;;20.71;27.79
37132;BME280;23035;50.032;21.978;2023-05-10T12:31:31;67458.56;;;21.69;27.17
37132;BME280;23035;50.032;21.978;2023-05-10T12:36:38;67501.78;;;22.07;27.35
37132;BME280;23035;50.032;21.978;2023-05-10T12:41:42;67427.19;;;21.39;28.11
37132;BME280;23035;50.032;21.978;2023-05-10T12:46:48;67360.78;;;20.79;28.76
37132;BME280;23035;50.032;21.978;2023-05-10T12:51:52;67375.88;;;20.94;28.31
37132;BME280;23035;50.032;21.978;2023-05-10T12:56:56;67449.91;;;21.61;27.51
37132;BME280;23035;50.032;21.978;2023-05-10T13:02:02;67418.50;;;21.29;29.58
37132;BME280;23035;50.032;21.978;2023-05-10T13:07:06;67426.72;;;21.41;28.91
37132;BME280;23035;50.032;21.978;2023-05-10T13:12:10;67459.16;;;21.72;27.73
37132;BME280;23035;50.032;21.978;2023-05-10T13:17:15;67496.41;;;22.04;27.30
37132;BME280;23035;50.032;21.978;2023-05-10T13:22:19;67301.78;;;20.21;30.75
37132;BME280;23035;50.032;21.978;2023-05-10T13:27:41;67308.75;;;20.25;30.68
37132;BME280;23035;50.032;21.978;2023-05-10T13:32:46;67360.09;;;20.74;31.42
37132;BME280;23035;50.032;21.978;2023-05-10T13:37:50;67459.63;;;21.70;29.84
37132;BME280;23035;50.032;21.978;2023-05-10T13:42:57;67454.72;;;21.63;29.44
37132;BME280;23035;50.032;21.978;2023-05-10T13:48:03;67358.56;;;20.75;29.68
37132;BME280;23035;50.032;21.978;2023-05-10T13:53:07;67207.97;;;19.38;31.66
37132;BME280;23035;50.032;21.978;2023-05-10T13:58:11;67233.75;;;19.57;32.04
37132;BME280;23035;50.032;21.978;2023-05-10T14:03:17;67265.63;;;19.87;30.88
37132;BME280;23035;50.032;21.978;2023-05-10T14:08:21;67258.72;;;19.86;31.61
37132;BME280;23035;50.032;21.978;2023-05-10T14:13:25;67226.19;;;19.50;31.38
37132;BME280;23035;50.032;21.978;2023-05-10T14:18:31;67197.63;;;19.26;31.54
37132;BME280;23035;50.032;21.978;2023-05-10T14:23:35;67177.00;;;19.01;31.72
37132;BME280;23035;50.032;21.978;2023-05-10T14:28:39;67223.34;;;19.42;31.79
37132;BME280;23035;50.032;21.978;2023-05-10T14:33:45;67232.66;;;19.56;30.98
37132;BME280;23035;50.032;21.978;2023-05-10T14:38:49;67144.13;;;18.73;32.05
37132;BME280;23035;50.032;21.978;2023-05-10T14:43:53;67185.75;;;19.14;31.32
37132;BME280;23035;50.032;21.978;2023-05-10T14:48:59;67240.22;;;19.63;30.42
37132;BME280;23035;50.032;21.978;2023-05-10T14:54:03;67255.69;;;19.70;30.02
37132;BME280;23035;50.032;21.978;2023-05-10T14:59:07;67271.50;;;19.90;30.24
37132;BME280;23035;50.032;21.978;2023-05-10T15:04:13;67291.47;;;20.09;29.42
37132;BME280;23035;50.032;21.978;2023-05-10T15:09:19;67275.88;;;19.97;30.32
37132;BME280;23035;50.032;21.978;2023-05-10T15:14:23;67300.72;;;20.20;29.60
37132;BME280;23035;50.032;21.978;2023-05-10T15:19:29;67261.47;;;19.91;30.54
37132;BME280;23035;50.032;21.978;2023-05-10T15:24:32;67237.59;;;19.63;30.39
37132;BME280;23035;50.032;21.978;2023-05-10T15:29:37;67282.97;;;20.06;30.06
37132;BME280;23035;50.032;21.978;2023-05-10T15:34:42;67230.50;;;19.54;29.14
37132;BME280;23035;50.032;21.978;2023-05-10T15:39:46;67166.72;;;18.91;30.76
37132;BME280;23035;50.032;21.978;2023-05-10T15:45:09;67166.78;;;18.94;30.12
37132;BME280;23035;50.032;21.978;2023-05-10T15:50:15;67093.53;;;18.30;31.24
37132;BME280;23035;50.032;21.978;2023-05-10T15:55:19;67155.47;;;18.83;31.27
37132;BME280;23035;50.032;21.978;2023-05-10T16:00:23;67075.47;;;18.03;32.73
37132;BME280;23035;50.032;21.978;2023-05-10T16:05:29;66951.66;;;16.94;34.46
37132;BME280;23035;50.032;21.978;2023-05-10T16:10:35;66857.81;;;16.02;35.78
37132;BME280;23035;50.032;21.978;2023-05-10T16:15:39;66834.66;;;15.81;36.52
37132;BME280;23035;50.032;21.978;2023-05-10T16:20:45;66781.41;;;15.33;37.61
37132;BME280;23035;50.032;21.978;2023-05-10T16:25:49;66770.59;;;15.20;38.16
37132;BME280;23035;50.032;21.978;2023-05-10T16:30:52;66794.25;;;15.42;37.89
37132;BME280;23035;50.032;21.978;2023-05-10T16:35:58;66862.50;;;16.02;36.45
37132;BME280;23035;50.032;21.978;2023-05-10T16:41:02;66813.19;;;15.63;37.04
37132;BME280;23035;50.032;21.978;2023-05-10T16:46:09;66789.91;;;15.36;38.13
37132;BME280;23035;50.032;21.978;2023-05-10T16:51:15;66817.34;;;15.62;37.67
37132;BME280;23035;50.032;21.978;2023-05-10T16:56:19;66813.13;;;15.60;37.89
37132;BME280;23035;50.032;21.978;2023-05-10T17:01:25;66774.91;;;15.24;38.91
37132;BME280;23035;50.032;21.978;2023-05-10T17:06:31;66701.16;;;14.54;41.67
37132;BME280;23035;50.032;21.978;2023-05-10T17:11:35;66730.28;;;14.84;41.02
37132;BME280;23035;50.032;21.978;2023-05-10T17:16:40;66716.25;;;14.69;41.51
37132;BME280;23035;50.032;21.978;2023-05-10T17:21:45;66719.47;;;14.72;41.72
37132;BME280;23035;50.032;21.978;2023-05-10T17:26:49;66685.09;;;14.42;42.01
37132;BME280;23035;50.032;21.978;2023-05-10T17:31:57;66692.56;;;14.46;42.26
37132;BME280;23035;50.032;21.978;2023-05-10T17:37:03;66752.81;;;15.03;40.92
37132;BME280;23035;50.032;21.978;2023-05-10T17:42:07;66649.50;;;14.05;43.01
37132;BME280;23035;50.032;21.978;2023-05-10T17:47:11;66624.78;;;13.82;43.00
37132;BME280;23035;50.032;21.978;2023-05-10T17:52:17;66682.25;;;14.34;41.69
37132;BME280;23035;50.032;21.978;2023-05-10T17:57:21;66659.19;;;14.15;42.85
37132;BME280;23035;50.032;21.978;2023-05-10T18:02:26;66674.25;;;14.29;42.28
37132;BME280;23035;50.032;21.978;2023-05-10T18:07:31;66597.28;;;13.54;45.22
37132;BME280;23035;50.032;21.978;2023-05-10T18:12:37;66616.81;;;13.77;44.93
37132;BME280;23035;50.032;21.978;2023-05-10T18:17:41;66583.38;;;13.43;46.32
37132;BME280;23035;50.032;21.978;2023-05-10T18:22:47;66543.59;;;13.05;47.87
37132;BME280;23035;50.032;21.978;2023-05-10T18:27:51;66557.66;;;13.21;47.05
37132;BME280;23035;50.032;21.978;2023-05-10T18:32:55;66543.59;;;13.05;47.81
37132;BME280;23035;50.032;21.978;2023-05-10T18:38:01;66515.13;;;12.78;48.51
37132;BME280;23035;50.032;21.978;2023-05-10T18:43:05;66539.38;;;13.04;48.44
37132;BME280;23035;50.032;21.978;2023-05-10T18:48:09;66570.41;;;13.28;47.25
37132;BME280;23035;50.032;21.978;2023-05-10T18:53:14;66572.81;;;13.38;47.17
37132;BME280;23035;50.032;21.978;2023-05-10T18:58:18;66523.72;;;12.86;48.72
37132;BME280;23035;50.032;21.978;2023-05-10T19:03:22;66522.09;;;12.85;49.07
37132;BME280;23035;50.032;21.978;2023-05-10T19:08:28;66512.44;;;12.76;48.75
37132;BME280;23035;50.032;21.978;2023-05-10T19:13:32;66490.41;;;12.55;50.58
37132;BME280;23035;50.032;21.978;2023-05-10T19:18:37;66486.56;;;12.49;51.30
37132;BME280;23035;50.032;21.978;2023-05-10T19:23:43;66458.25;;;12.27;51.84
37132;BME280;23035;50.032;21.978;2023-05-10T19:28:49;66476.97;;;12.42;52.53
37132;BME280;23035;50.032;21.978;2023-05-10T19:33:53;66431.31;;;11.99;53.48
37132;BME280;23035;50.032;21.978;2023-05-10T19:39:03;66428.09;;;11.96;53.72
37132;BME280;23035;50.032;21.978;2023-05-10T19:44:07;66449.06;;;12.16;52.48
37132;BME280;23035;50.032;21.978;2023-05-10T19:49:11;66490.25;;;12.50;50.94
37132;BME280;23035;50.032;21.978;2023-05-10T19:54:16;66435.63;;;12.03;53.45
37132;BME280;23035;50.032;21.978;2023-05-10T19:59:20;66437.16;;;12.02;52.68
37132;BME280;23035;50.032;21.978;2023-05-10T20:04:24;66449.06;;;12.16;52.36
37132;BME280;23035;50.032;21.978;2023-05-10T20:09:31;66466.59;;;12.27;51.80
37132;BME280;23035;50.032;21.978;2023-05-10T20:14:36;66431.88;;;11.99;53.04
37132;BME280;23035;50.032;21.978;2023-05-10T20:19:40;66429.19;;;11.97;52.36
37132;BME280;23035;50.032;21.978;2023-05-10T20:24:45;66439.91;;;12.07;53.02
37132;BME280;23035;50.032;21.978;2023-05-10T20:29:49;66370.66;;;11.41;57.59
37132;BME280;23035;50.032;21.978;2023-05-10T20:34:54;66388.28;;;11.56;57.96
37132;BME280;23035;50.032;21.978;2023-05-10T20:39:59;66415.22;;;11.84;58.82
37132;BME280;23035;50.032;21.978;2023-05-10T20:45:04;66364.75;;;11.36;59.82
37132;BME280;23035;50.032;21.978;2023-05-10T20:50:09;66333.47;;;11.01;61.74
37132;BME280;23035;50.032;21.978;2023-05-10T20:55:15;66316.44;;;10.90;61.51
37132;BME280;23035;50.032;21.978;2023-05-10T21:00:19;66310.56;;;10.84;61.88
37132;BME280;23035;50.032;21.978;2023-05-10T21:05:23;66308.97;;;10.83;62.68
37132;BME280;23035;50.032;21.978;2023-05-10T21:10:29;66324.50;;;10.98;62.52
37132;BME280;23035;50.032;21.978;2023-05-10T21:15:33;66255.75;;;10.30;65.17
37132;BME280;23035;50.032;21.978;2023-05-10T21:20:37;66261.75;;;10.38;67.04
37132;BME280;23035;50.032;21.978;2023-05-10T21:25:42;66242.97;;;10.20;67.81
37132;BME280;23035;50.032;21.978;2023-05-10T21:30:46;66224.66;;;10.00;67.84
37132;BME280;23035;50.032;21.978;2023-05-10T21:35:50;66233.75;;;10.09;68.01
37132;BME280;23035;50.032;21.978;2023-05-10T21:40:56;66243.41;;;10.18;67.79
37132;BME280;23035;50.032;21.978;2023-05-10T21:46:00;66168.38;;;9.47;69.90
37132;BME280;23035;50.032;21.978;2023-05-10T21:51:04;66178.09;;;9.59;71.69
37132;BME280;23035;50.032;21.978;2023-05-10T21:56:10;66194.63;;;9.72;68.89
37132;BME280;23035;50.032;21.978;2023-05-10T22:01:14;66216.69;;;9.95;69.88
37132;BME280;23035;50.032;21.978;2023-05-10T22:06:19;66218.84;;;9.97;67.09
37132;BME280;23035;50.032;21.978;2023-05-10T22:11:25;66164.72;;;9.46;70.16
37132;BME280;23035;50.032;21.978;2023-05-10T22:16:29;66223.03;;;9.99;66.37
37132;BME280;23035;50.032;21.978;2023-05-10T22:21:33;66163.00;;;9.42;71.12
37132;BME280;23035;50.032;21.978;2023-05-10T22:26:38;66178.56;;;9.57;71.32
37132;BME280;23035;50.032;21.978;2023-05-10T22:31:42;66137.91;;;9.20;74.20
37132;BME280;23035;50.032;21.978;2023-05-10T22:36:46;66113.19;;;8.95;75.61
37132;BME280;23035;50.032;21.978;2023-05-10T22:41:52;66123.34;;;9.04;79.36
37132;BME280;23035;50.032;21.978;2023-05-10T22:46:56;66077.91;;;8.63;82.29
37132;BME280;23035;50.032;21.978;2023-05-10T22:52:00;66052.69;;;8.37;84.70
37132;BME280;23035;50.032;21.978;2023-05-10T22:57:05;66013.66;;;8.02;87.66
37132;BME280;23035;50.032;21.978;2023-05-10T23:02:09;65969.88;;;7.63;90.87
37132;BME280;23035;50.032;21.978;2023-05-10T23:07:15;66024.28;;;8.10;89.11
37132;BME280;23035;50.032;21.978;2023-05-10T23:12:21;66044.09;;;8.29;87.36
37132;BME280;23035;50.032;21.978;2023-05-10T23:17:25;65976.19;;;7.67;91.49
37132;BME280;23035;50.032;21.978;2023-05-10T23:22:29;65948.91;;;7.41;94.78
37132;BME280;23035;50.032;21.978;2023-05-10T23:27:34;66007.16;;;7.94;91.00
37132;BME280;23035;50.032;21.978;2023-05-10T23:32:38;65999.75;;;7.89;92.66
37132;BME280;23035;50.032;21.978;2023-05-10T23:37:42;66056.41;;;8.41;88.80
37132;BME280;23035;50.032;21.978;2023-05-10T23:42:47;66022.75;;;8.11;89.93
37132;BME280;23035;50.032;21.978;2023-05-10T23:47:51;66030.72;;;8.16;88.30
37132;BME280;23035;50.032;21.978;2023-05-10T23:52:55;66000.38;;;7.92;91.61
37132;BME280;23035;50.032;21.978;2023-05-10T23:58:01;66098.63;;;8.78;85.43
